createdAt,value
2023-01-30T00:03:59.153Z,4.92
2023-01-30T00:09:01.928Z,4.94
2023-01-30T00:14:04.778Z,5.37
2023-01-30T00:19:08.901Z,5.04
2023-01-30T00:24:11.760Z,4.84
2023-01-30T00:29:14.599Z,5.11
2023-01-30T00:34:18.755Z,5.12
2023-01-30T00:39:21.583Z,4.98
2023-01-30T00:44:41.868Z,5.14
2023-01-30T00:49:46.572Z,5.17
2023-01-30T00:54:51.347Z,5.30
2023-01-30T00:59:54.501Z,5.64
2023-01-30T01:04:58.613Z,5.35
2023-01-30T01:10:03.325Z,5.63
2023-01-30T01:15:07.184Z,5.43
2023-01-30T01:20:13.072Z,5.57
2023-01-30T01:25:19.527Z,5.79
2023-01-30T01:30:22.597Z,5.79
2023-01-30T01:35:26.746Z,6.03
2023-01-30T01:40:46.888Z,5.63
2023-01-30T01:45:52.836Z,5.88
2023-01-30T01:51:00.476Z,5.98
2023-01-30T01:56:07.005Z,5.81
2023-01-30T02:01:10.092Z,5.85
2023-01-30T02:06:15.779Z,5.66
2023-01-30T02:11:25.745Z,6.02
2023-01-30T02:16:28.515Z,6.32
2023-01-30T02:22:16.896Z,6.25
2023-01-30T02:27:53.379Z,6.10
2023-01-30T02:33:10.820Z,5.99
2023-01-30T02:38:25.795Z,5.67
2023-01-30T02:43:35.147Z,6.14
2023-01-30T02:48:45.261Z,6.22
2023-01-30T02:53:49.755Z,6.26
2023-01-30T02:58:57.374Z,6.18
2023-01-30T03:04:30.151Z,6.31
2023-01-30T03:09:44.566Z,6.56
2023-01-30T03:14:53.598Z,6.34
2023-01-30T03:19:57.807Z,6.47
2023-01-30T03:25:00.737Z,6.57
2023-01-30T03:30:04.163Z,6.63
2023-01-30T03:35:09.391Z,6.76
2023-01-30T03:40:14.551Z,6.55
2023-01-30T03:45:18.078Z,6.66
2023-01-30T03:50:24.358Z,6.85
2023-01-30T03:55:27.704Z,7.17
2023-01-30T04:00:30.870Z,6.54
2023-01-30T04:05:35.206Z,6.95
2023-01-30T04:10:42.050Z,7.12
2023-01-30T04:15:44.922Z,6.77
2023-01-30T04:21:09.380Z,6.61
2023-01-30T04:26:14.948Z,6.57
2023-01-30T04:31:17.870Z,6.55
2023-01-30T04:36:42.397Z,6.91
2023-01-30T04:41:45.875Z,6.87
2023-01-30T04:46:48.758Z,6.98
2023-01-30T04:51:53.737Z,6.69
2023-01-30T04:56:58.012Z,6.93
2023-01-30T05:02:01.023Z,6.85
2023-01-30T05:07:05.264Z,6.39
2023-01-30T05:12:08.344Z,6.66
2023-01-30T05:17:11.301Z,6.33
2023-01-30T05:22:15.842Z,6.37
2023-01-30T05:27:19.129Z,6.57
2023-01-30T05:32:22.260Z,6.70
2023-01-30T05:37:26.605Z,6.18
2023-01-30T05:42:29.416Z,6.07
2023-01-30T05:47:32.328Z,6.27
2023-01-30T05:52:36.508Z,6.02
2023-01-30T05:57:39.717Z,6.22
2023-01-30T06:02:42.744Z,6.19
2023-01-30T06:07:46.941Z,5.87
2023-01-30T06:12:49.764Z,5.90
2023-01-30T06:17:52.507Z,5.63
2023-01-30T06:22:56.648Z,5.66
2023-01-30T06:27:59.531Z,5.80
2023-01-30T06:33:02.403Z,5.66
2023-01-30T06:38:09.607Z,5.68
2023-01-30T06:43:12.457Z,5.55
2023-01-30T06:48:15.239Z,5.67
2023-01-30T06:53:19.406Z,6.07
2023-01-30T06:58:22.639Z,5.75
2023-01-30T07:03:25.746Z,5.60
2023-01-30T07:08:30.217Z,5.86
2023-01-30T07:13:33.022Z,5.41
2023-01-30T07:18:35.843Z,5.79
2023-01-30T07:23:39.966Z,5.71
2023-01-30T07:28:42.787Z,5.66
2023-01-30T07:33:45.637Z,5.63
2023-01-30T07:38:50.558Z,5.76
2023-01-30T07:43:53.310Z,5.90
2023-01-30T07:48:57.362Z,5.85
2023-01-30T07:54:04.020Z,6.33
2023-01-30T07:59:07.182Z,6.52
2023-01-30T08:04:10.052Z,6.65
2023-01-30T08:09:14.172Z,6.59
2023-01-30T08:14:17.401Z,6.78
2023-01-30T08:19:20.268Z,6.62
2023-01-30T08:24:24.402Z,6.45
2023-01-30T08:29:27.223Z,5.99
2023-01-30T08:34:31.870Z,6.29
2023-01-30T08:39:37.262Z,6.84
2023-01-30T08:44:40.491Z,6.81
2023-01-30T08:49:43.371Z,6.79
2023-01-30T08:54:47.701Z,6.55
2023-01-30T08:59:51.518Z,6.85
2023-01-30T09:04:54.373Z,6.96
2023-01-30T09:09:58.451Z,7.33
2023-01-30T09:15:01.248Z,7.04
2023-01-30T09:20:04.077Z,6.69
2023-01-30T09:25:09.303Z,6.65
2023-01-30T09:30:13.284Z,6.53
2023-01-30T09:35:16.267Z,7.12
2023-01-30T09:40:25.028Z,7.22
2023-01-30T09:45:54.461Z,7.48
2023-01-30T09:51:24.139Z,7.60
2023-01-30T09:56:28.287Z,8.00
2023-01-30T10:01:42.056Z,7.63
2023-01-30T10:06:55.153Z,7.34
2023-01-30T10:12:16.205Z,6.71
2023-01-30T10:17:35.274Z,6.86
2023-01-30T10:22:49.895Z,6.61
2023-01-30T10:28:00.397Z,6.69
2023-01-30T10:33:07.145Z,6.65
2023-01-30T10:38:16.620Z,5.86
2023-01-30T10:43:28.079Z,6.03
2023-01-30T10:48:50.650Z,6.73
2023-01-30T10:53:59.806Z,6.46
2023-01-30T10:59:14.219Z,6.24
2023-01-30T11:04:30.693Z,5.21
2023-01-30T11:09:41.761Z,5.16
2023-01-30T11:14:58.516Z,5.36
2023-01-30T11:20:06.982Z,5.42
2023-01-30T11:25:15.142Z,5.35
2023-01-30T11:30:21.961Z,5.06
2023-01-30T11:35:28.627Z,5.24
2023-01-30T11:40:32.084Z,5.33
2023-01-30T11:45:42.946Z,5.29
2023-01-30T11:50:49.872Z,5.87
2023-01-30T11:56:03.798Z,5.82
2023-01-30T12:01:11.748Z,6.16
2023-01-30T12:06:23.653Z,6.26
2023-01-30T12:11:32.795Z,6.14
2023-01-30T12:16:51.846Z,6.46
2023-01-30T12:22:01.320Z,6.30
2023-01-30T12:27:07.063Z,6.09
2023-01-30T12:32:15.119Z,5.95
2023-01-30T12:37:35.996Z,6.22
2023-01-30T12:43:07.753Z,6.10
2023-01-30T12:48:48.519Z,6.52
2023-01-30T12:54:04.615Z,6.44
2023-01-30T12:59:13.071Z,7.05
2023-01-30T13:04:22.005Z,7.04
2023-01-30T13:09:39.657Z,7.36
2023-01-30T13:14:49.617Z,7.31
2023-01-30T13:20:04.176Z,7.47
2023-01-30T13:25:19.818Z,7.48
2023-01-30T13:30:25.423Z,7.80
2023-01-30T13:35:32.789Z,7.32
2023-01-30T13:40:40.735Z,7.12
2023-01-30T13:45:47.115Z,7.29
2023-01-30T13:51:22.577Z,7.57
2023-01-30T13:56:42.991Z,7.56
2023-01-30T14:02:18.142Z,7.69
2023-01-30T14:07:31.071Z,7.38
2023-01-30T14:12:37.987Z,7.59
2023-01-30T14:17:41.133Z,7.63
2023-01-30T14:22:53.105Z,7.66
2023-01-30T14:28:16.586Z,7.57
2023-01-30T14:33:34.969Z,7.95
2023-01-30T14:38:41.317Z,7.43
2023-01-30T14:43:53.610Z,7.88
2023-01-30T14:49:04.380Z,7.91
2023-01-30T14:54:23.479Z,7.86
2023-01-30T14:59:33.387Z,7.89
2023-01-30T15:04:44.728Z,8.15
2023-01-30T15:09:58.587Z,7.73
2023-01-30T15:15:14.453Z,7.98
2023-01-30T15:20:30.449Z,7.77
2023-01-30T15:25:51.539Z,7.92
2023-01-30T15:31:09.964Z,8.02
2023-01-30T15:36:21.410Z,7.65
2023-01-30T15:41:26.517Z,7.91
2023-01-30T15:46:42.564Z,7.51
2023-01-30T15:51:45.589Z,7.51
2023-01-30T15:56:50.728Z,7.37
2023-01-30T16:02:01.796Z,7.25
2023-01-30T16:07:15.881Z,7.37
2023-01-30T16:12:26.759Z,7.16
2023-01-30T16:17:32.626Z,7.35
2023-01-30T16:22:36.254Z,7.19
2023-01-30T16:27:40.931Z,7.29
2023-01-30T16:32:43.973Z,7.09
2023-01-30T16:37:47.006Z,7.00
2023-01-30T16:42:59.753Z,6.70
2023-01-30T16:48:25.473Z,6.96
2023-01-30T16:53:30.954Z,6.77
2023-01-30T16:58:37.699Z,6.38
2023-01-30T17:03:43.978Z,6.43
2023-01-30T17:08:52.149Z,6.51
2023-01-30T17:14:17.041Z,6.52
2023-01-30T17:19:19.933Z,6.48
2023-01-30T17:24:25.062Z,6.39
2023-01-30T17:29:42.332Z,6.33
2023-01-30T17:34:45.863Z,6.30
2023-01-30T17:39:49.221Z,6.44
2023-01-30T17:44:54.110Z,6.26
2023-01-30T17:49:56.945Z,6.31
2023-01-30T17:54:59.795Z,6.21
2023-01-30T18:00:05.328Z,6.26
2023-01-30T18:05:13.045Z,6.29
2023-01-30T18:10:19.711Z,6.50
2023-01-30T18:15:25.438Z,6.34
2023-01-30T18:20:28.296Z,6.27
2023-01-30T18:25:31.214Z,6.10
2023-01-30T18:30:35.496Z,6.08
2023-01-30T18:35:39.008Z,5.82
2023-01-30T18:40:42.231Z,5.88
2023-01-30T18:45:46.609Z,5.74
2023-01-30T18:50:49.534Z,5.90
2023-01-30T18:55:54.673Z,5.72
2023-01-30T19:01:01.364Z,5.80
2023-01-30T19:06:04.947Z,5.63
2023-01-30T19:11:24.218Z,5.97
2023-01-30T19:16:57.981Z,5.94
2023-01-30T19:22:07.790Z,5.79
2023-01-30T19:27:26.661Z,5.72
2023-01-30T19:32:39.648Z,5.49
2023-01-30T19:37:48.955Z,5.35
2023-01-30T19:42:54.766Z,5.41
2023-01-30T19:48:05.617Z,5.55
2023-01-30T19:53:08.783Z,5.63
2023-01-30T19:58:14.779Z,5.60
2023-01-30T20:03:19.164Z,5.67
2023-01-30T20:08:32.371Z,5.56
2023-01-30T20:13:36.973Z,5.58
2023-01-30T20:18:42.367Z,5.53
2023-01-30T20:23:47.468Z,5.62
2023-01-30T20:28:58.802Z,5.69
2023-01-30T20:34:04.590Z,5.52
2023-01-30T20:39:08.035Z,5.60
2023-01-30T20:44:15.598Z,5.49
2023-01-30T20:49:23.110Z,5.17
2023-01-30T20:54:26.426Z,5.19
2023-01-30T20:59:30.028Z,4.97
2023-01-30T21:04:38.384Z,5.10
2023-01-30T21:09:41.322Z,5.15
2023-01-30T21:14:49.312Z,5.04
2023-01-30T21:19:54.666Z,5.11
2023-01-30T21:24:59.675Z,4.89
2023-01-30T21:30:05.396Z,4.78
2023-01-30T21:35:10.624Z,4.90
2023-01-30T21:40:33.115Z,5.05
2023-01-30T21:45:36.548Z,4.89
2023-01-30T21:50:41.197Z,5.03
2023-01-30T21:55:44.183Z,4.81
2023-01-30T22:00:47.244Z,4.85
2023-01-30T22:05:53.554Z,4.98
2023-01-30T22:11:06.200Z,5.31
2023-01-30T22:16:11.456Z,5.31
2023-01-30T22:21:17.902Z,5.31
2023-01-30T22:26:25.200Z,5.10
2023-01-30T22:31:35.124Z,5.13
2023-01-30T22:36:39.587Z,4.97
2023-01-30T22:41:44.602Z,5.22
2023-01-30T22:46:47.784Z,5.10
2023-01-30T22:51:54.070Z,4.86
2023-01-30T22:56:57.368Z,4.66
2023-01-30T23:02:00.412Z,4.62
2023-01-30T23:07:04.769Z,4.61
2023-01-30T23:12:24.840Z,4.38
2023-01-30T23:17:45.122Z,4.39
2023-01-30T23:22:53.245Z,4.46
2023-01-30T23:27:56.048Z,4.66
2023-01-30T23:32:59.119Z,4.94
2023-01-30T23:38:19.223Z,5.09
2023-01-30T23:43:22.255Z,5.28
2023-01-30T23:48:25.159Z,5.12
2023-01-30T23:53:29.475Z,5.19
2023-01-30T23:58:32.320Z,5.10
